Wheatland, Missouri
Current Conditions -  °F | °C
As of 2:15 AM on Saturday 25 Oct 2014 (Local Time) from KGLY Reporting Station
Haze Haze  
Wind Chill: 63°   Ceiling: Unl
Heat Index: 63°   Visibility: 5mi
Dew Point: 61°   Wind: 6mph
Humidity: 94%   Direction: 220°SW
Pressure: 30.02"   Gusts: NA
Location:  37.95°N, 93.4°W
Report Text: KGLY 250715Z AUTO 22005KT 5SM BR CLR 17/16 A3002 RMK AO2
Loading
Personal Weather Stations






























Interactive Weather Map
Tropical Storm Tracking
New forecast layout! Learn more

10-Day Weather Forecast

Advertisements
Track Severe Weather on mobile